createdAt,value
2022-12-16T00:01:24.548Z,33.60
2022-12-16T00:03:54.975Z,29.47
2022-12-16T00:06:25.588Z,27.27
2022-12-16T00:08:55.027Z,27.13
2022-12-16T00:11:24.477Z,29.57
2022-12-16T00:13:52.605Z,36.47
2022-12-16T00:16:22.747Z,30.03
2022-12-16T00:18:51.844Z,29.10
2022-12-16T00:21:20.462Z,35.00
2022-12-16T00:23:48.797Z,31.97
2022-12-16T00:26:17.076Z,30.27
2022-12-16T00:28:46.461Z,29.23
2022-12-16T00:31:14.648Z,30.93
2022-12-16T00:33:42.923Z,29.00
2022-12-16T00:36:11.525Z,27.73
2022-12-16T00:38:39.594Z,29.90
2022-12-16T00:41:08.091Z,31.20
2022-12-16T00:43:36.495Z,29.20
2022-12-16T00:46:06.304Z,29.40
2022-12-16T00:48:34.389Z,30.00
2022-12-16T00:51:02.397Z,26.37
2022-12-16T00:53:31.022Z,30.27
2022-12-16T00:56:06.296Z,30.07
2022-12-16T00:58:34.428Z,27.10
2022-12-16T01:01:03.230Z,33.47
2022-12-16T01:03:32.861Z,31.80
2022-12-16T01:06:01.052Z,30.03
2022-12-16T01:08:29.420Z,29.50
2022-12-16T01:10:58.676Z,30.37
2022-12-16T01:13:26.934Z,33.10
2022-12-16T01:15:55.170Z,34.83
2022-12-16T01:18:23.209Z,32.13
2022-12-16T01:20:52.571Z,33.23
2022-12-16T01:23:22.858Z,32.13
2022-12-16T01:25:54.641Z,31.83
2022-12-16T01:28:23.063Z,33.87
2022-12-16T01:30:55.508Z,33.87
2022-12-16T01:33:23.646Z,30.67
2022-12-16T01:36:00.181Z,30.60
2022-12-16T01:38:28.163Z,31.77
2022-12-16T01:40:56.256Z,34.27
2022-12-16T01:43:27.248Z,33.97
2022-12-16T01:46:00.240Z,29.60
2022-12-16T01:48:43.410Z,29.97
2022-12-16T01:51:17.488Z,36.07
2022-12-16T01:53:47.676Z,33.17
2022-12-16T01:56:18.270Z,33.83
2022-12-16T01:58:46.992Z,33.63
2022-12-16T02:01:16.886Z,35.77
2022-12-16T02:03:45.685Z,35.40
2022-12-16T02:06:15.047Z,33.23
2022-12-16T02:08:43.074Z,35.10
2022-12-16T02:11:29.401Z,30.77
2022-12-16T02:14:13.549Z,35.13
2022-12-16T02:16:51.583Z,28.30
2022-12-16T02:19:44.357Z,35.83
2022-12-16T02:22:25.509Z,36.40
2022-12-16T02:25:22.990Z,36.93
2022-12-16T02:27:59.666Z,35.10
2022-12-16T02:31:00.802Z,33.07
2022-12-16T02:34:03.152Z,32.23
2022-12-16T02:36:47.550Z,31.23
2022-12-16T02:39:21.614Z,34.13
2022-12-16T02:41:54.753Z,33.07
2022-12-16T02:44:32.240Z,31.07
2022-12-16T02:47:01.669Z,30.90
2022-12-16T02:49:50.556Z,30.40
2022-12-16T02:52:22.761Z,34.93
2022-12-16T02:54:53.565Z,30.33
2022-12-16T02:57:46.997Z,31.97
2022-12-16T03:00:18.277Z,30.10
2022-12-16T03:02:55.447Z,32.20
2022-12-16T03:05:27.244Z,30.53
2022-12-16T03:07:58.865Z,30.97
2022-12-16T03:10:31.973Z,36.80
2022-12-16T03:13:02.440Z,33.07
2022-12-16T03:15:33.909Z,34.03
2022-12-16T03:18:06.484Z,31.77
2022-12-16T03:20:38.082Z,33.90
2022-12-16T03:23:16.251Z,34.13
2022-12-16T03:25:46.800Z,31.30
2022-12-16T03:28:27.388Z,34.47
2022-12-16T03:31:02.800Z,35.37
2022-12-16T03:33:37.858Z,33.97
2022-12-16T03:36:11.454Z,35.60
2022-12-16T03:38:41.687Z,31.33
2022-12-16T03:41:10.364Z,30.10
2022-12-16T03:43:39.405Z,34.83
2022-12-16T03:46:09.177Z,33.37
2022-12-16T03:48:47.321Z,32.10
2022-12-16T03:51:16.051Z,34.77
2022-12-16T03:53:44.951Z,30.97
2022-12-16T03:56:13.764Z,32.63
2022-12-16T03:58:41.793Z,32.73
2022-12-16T04:01:10.531Z,31.43
2022-12-16T04:03:40.073Z,37.70
2022-12-16T04:06:08.677Z,37.47
2022-12-16T04:08:36.687Z,37.27
2022-12-16T04:11:22.085Z,35.03
2022-12-16T04:14:07.653Z,37.07
2022-12-16T04:16:54.262Z,34.93
2022-12-16T04:19:45.161Z,33.97
2022-12-16T04:22:33.399Z,32.73
2022-12-16T04:25:07.362Z,35.67
2022-12-16T04:27:36.417Z,33.93
2022-12-16T04:30:20.317Z,33.53
2022-12-16T04:33:09.437Z,34.47
2022-12-16T04:35:56.596Z,27.60
2022-12-16T04:38:42.202Z,32.83
2022-12-16T04:41:27.659Z,34.93
2022-12-16T04:44:13.317Z,41.47
2022-12-16T04:46:59.089Z,41.20
2022-12-16T04:49:44.722Z,34.63
2022-12-16T04:52:31.416Z,44.17
2022-12-16T04:55:16.697Z,44.93
2022-12-16T04:58:03.119Z,36.87
2022-12-16T05:00:48.732Z,37.33
2022-12-16T05:03:34.458Z,36.93
2022-12-16T05:06:20.412Z,38.13
2022-12-16T05:09:03.670Z,36.80
2022-12-16T05:11:49.287Z,36.23
2022-12-16T05:14:34.664Z,33.73
2022-12-16T05:17:20.194Z,36.90
2022-12-16T05:20:05.601Z,33.37
2022-12-16T05:22:51.422Z,34.27
2022-12-16T05:25:38.294Z,37.87
2022-12-16T05:28:24.609Z,33.60
2022-12-16T05:31:10.355Z,35.07
2022-12-16T05:33:56.269Z,39.03
2022-12-16T05:36:41.795Z,33.57
2022-12-16T05:39:27.772Z,33.63
2022-12-16T05:42:15.173Z,39.70
2022-12-16T05:45:00.468Z,37.30
2022-12-16T05:47:46.063Z,37.73
2022-12-16T05:50:31.373Z,29.73
2022-12-16T05:53:26.996Z,38.60
2022-12-16T05:56:12.221Z,35.73
2022-12-16T05:58:59.060Z,38.13
2022-12-16T06:01:44.928Z,36.83
2022-12-16T06:04:30.342Z,38.47
2022-12-16T06:07:15.820Z,37.47
2022-12-16T06:10:02.160Z,39.80
2022-12-16T06:12:47.714Z,41.67
2022-12-16T06:15:34.496Z,35.40
2022-12-16T06:18:19.772Z,37.17
2022-12-16T06:21:05.277Z,38.17
2022-12-16T06:23:50.845Z,33.67
2022-12-16T06:26:36.327Z,36.17
2022-12-16T06:29:21.814Z,33.93
2022-12-16T06:32:08.588Z,35.13
2022-12-16T06:34:54.182Z,33.73
2022-12-16T06:37:39.873Z,34.30
2022-12-16T06:40:26.638Z,36.40
2022-12-16T06:43:23.577Z,36.90
2022-12-16T06:46:08.920Z,35.57
2022-12-16T06:48:55.649Z,39.10
2022-12-16T06:51:40.886Z,35.37
2022-12-16T06:54:26.749Z,35.13
2022-12-16T06:57:12.332Z,32.10
2022-12-16T06:59:57.519Z,36.70
2022-12-16T07:02:43.009Z,36.83
2022-12-16T07:05:41.188Z,37.07
2022-12-16T07:08:26.601Z,33.13
2022-12-16T07:11:16.887Z,35.10
2022-12-16T07:14:05.272Z,38.43
2022-12-16T07:16:50.845Z,33.13
2022-12-16T07:19:36.421Z,34.50
2022-12-16T07:22:23.297Z,40.77
2022-12-16T07:25:09.205Z,32.97
2022-12-16T07:27:54.621Z,31.50
2022-12-16T07:30:39.909Z,35.20
2022-12-16T07:33:25.328Z,34.97
2022-12-16T07:36:10.673Z,34.47
2022-12-16T07:38:57.350Z,35.50
2022-12-16T07:41:42.654Z,36.73
2022-12-16T07:44:28.897Z,35.37
2022-12-16T07:47:28.789Z,35.83
2022-12-16T07:50:13.988Z,32.63
2022-12-16T07:52:59.468Z,34.03
2022-12-16T07:55:46.149Z,31.40
2022-12-16T07:58:31.649Z,34.53
2022-12-16T08:01:17.076Z,35.07
2022-12-16T08:04:02.396Z,35.50
2022-12-16T08:06:47.813Z,35.90
2022-12-16T08:09:33.048Z,33.23
2022-12-16T08:12:19.836Z,33.53
2022-12-16T08:15:05.505Z,35.43
2022-12-16T08:17:51.129Z,32.60
2022-12-16T08:20:38.082Z,35.63
2022-12-16T08:23:23.628Z,33.70
2022-12-16T08:26:09.329Z,33.10
2022-12-16T08:29:02.020Z,33.37
2022-12-16T08:32:11.089Z,31.13
2022-12-16T08:34:56.440Z,34.40
2022-12-16T08:37:53.491Z,31.33
2022-12-16T08:40:39.346Z,39.80
2022-12-16T08:43:24.830Z,38.37
2022-12-16T08:46:14.039Z,35.87
2022-12-16T08:48:59.903Z,38.27
2022-12-16T08:51:45.652Z,36.70
2022-12-16T08:54:42.678Z,41.17
2022-12-16T08:57:28.080Z,37.43
2022-12-16T09:00:13.708Z,40.30
2022-12-16T09:03:00.769Z,38.80
2022-12-16T09:05:46.341Z,35.20
2022-12-16T09:08:32.213Z,38.70
2022-12-16T09:11:19.609Z,37.43
2022-12-16T09:14:05.345Z,30.67
2022-12-16T09:16:50.615Z,32.47
2022-12-16T09:19:38.528Z,38.83
2022-12-16T09:22:24.125Z,36.23
2022-12-16T09:25:09.575Z,29.43
2022-12-16T09:27:54.921Z,36.13
2022-12-16T09:30:40.697Z,35.53
2022-12-16T09:33:25.320Z,31.90
2022-12-16T09:36:11.998Z,34.37
2022-12-16T09:38:57.669Z,38.73
2022-12-16T09:41:56.306Z,41.27
2022-12-16T09:44:49.976Z,37.67
2022-12-16T09:47:43.148Z,45.47
2022-12-16T09:50:40.424Z,40.27
2022-12-16T09:53:32.153Z,36.63
2022-12-16T09:56:19.519Z,33.63
2022-12-16T09:59:15.451Z,39.07
2022-12-16T10:02:03.324Z,42.90
2022-12-16T10:04:49.578Z,39.13
2022-12-16T10:07:38.054Z,37.97
2022-12-16T10:10:33.396Z,41.07
2022-12-16T10:13:26.188Z,36.73
2022-12-16T10:16:18.036Z,34.70
2022-12-16T10:19:13.536Z,33.73
2022-12-16T10:22:09.467Z,37.20
2022-12-16T10:25:05.939Z,41.13
2022-12-16T10:28:00.634Z,43.13
2022-12-16T10:30:48.246Z,44.30
2022-12-16T10:33:35.706Z,42.63
2022-12-16T10:36:22.207Z,45.70
2022-12-16T10:39:10.989Z,42.63
2022-12-16T10:41:59.865Z,37.33
2022-12-16T10:44:52.829Z,38.00
2022-12-16T10:47:39.084Z,37.87
2022-12-16T10:50:27.086Z,41.40
2022-12-16T10:53:17.235Z,40.77
2022-12-16T10:56:16.156Z,36.80
2022-12-16T10:59:09.254Z,40.10
2022-12-16T11:01:56.057Z,44.57
2022-12-16T11:04:49.785Z,40.50
2022-12-16T11:07:48.536Z,44.10
2022-12-16T11:10:53.798Z,39.87
2022-12-16T11:13:44.304Z,42.57
2022-12-16T11:16:35.489Z,39.63
2022-12-16T11:19:23.051Z,42.43
2022-12-16T11:22:13.894Z,44.97
2022-12-16T11:24:59.668Z,37.03
2022-12-16T11:27:45.654Z,41.20
2022-12-16T11:30:37.272Z,45.23
2022-12-16T11:33:31.786Z,41.73
2022-12-16T11:36:25.988Z,36.53
2022-12-16T11:39:11.869Z,40.67
2022-12-16T11:42:00.312Z,38.43
2022-12-16T11:44:50.583Z,37.97
2022-12-16T11:47:45.213Z,41.50
2022-12-16T11:50:35.961Z,37.37
2022-12-16T11:53:22.401Z,39.83
2022-12-16T11:56:15.944Z,40.60
2022-12-16T11:59:06.285Z,43.40
2022-12-16T12:01:55.526Z,39.80
2022-12-16T12:04:41.461Z,44.63
2022-12-16T12:07:44.965Z,41.60
2022-12-16T12:10:57.304Z,41.73
2022-12-16T12:13:59.288Z,35.53
2022-12-16T12:16:50.504Z,40.10
2022-12-16T12:19:43.956Z,40.77
2022-12-16T12:22:38.616Z,41.07
2022-12-16T12:25:30.529Z,39.03
2022-12-16T12:28:28.061Z,36.83
2022-12-16T12:31:20.839Z,40.70
2022-12-16T12:34:18.922Z,39.23
2022-12-16T12:37:11.970Z,41.93
2022-12-16T12:40:04.926Z,38.77
2022-12-16T12:42:56.340Z,38.77
2022-12-16T12:46:06.319Z,41.70
2022-12-16T12:48:57.918Z,37.23
2022-12-16T12:51:54.585Z,37.27
2022-12-16T12:54:49.640Z,36.23
2022-12-16T12:57:39.768Z,42.40
2022-12-16T13:00:33.810Z,42.53
2022-12-16T13:03:26.561Z,40.33
2022-12-16T13:06:13.730Z,39.50
2022-12-16T13:09:13.608Z,39.77
2022-12-16T13:12:37.701Z,38.10
2022-12-16T13:15:25.467Z,40.97
2022-12-16T13:18:50.341Z,40.27
2022-12-16T13:22:02.993Z,42.00
2022-12-16T13:24:57.787Z,40.97
2022-12-16T13:27:44.387Z,44.50
2022-12-16T13:30:42.767Z,46.53
2022-12-16T13:33:42.433Z,47.55
2022-12-16T13:36:29.437Z,42.50
2022-12-16T13:39:24.484Z,42.00
2022-12-16T13:42:17.968Z,39.03
2022-12-16T13:45:34.444Z,40.73
2022-12-16T13:48:23.328Z,38.40
2022-12-16T13:51:18.125Z,38.50
2022-12-16T13:54:08.208Z,38.87
2022-12-16T13:57:00.467Z,41.23
2022-12-16T13:59:50.927Z,44.30
2022-12-16T14:02:45.491Z,45.53
2022-12-16T14:05:40.496Z,40.13
2022-12-16T14:08:33.292Z,40.97
2022-12-16T14:11:22.504Z,48.77
2022-12-16T14:14:16.749Z,43.20
2022-12-16T14:17:10.367Z,44.10
2022-12-16T14:20:12.858Z,40.87
2022-12-16T14:23:10.852Z,47.87
2022-12-16T14:26:03.957Z,46.80
2022-12-16T14:28:52.016Z,49.10
2022-12-16T14:31:41.139Z,49.70
2022-12-16T14:34:33.558Z,54.67
2022-12-16T14:37:23.908Z,47.10
2022-12-16T14:40:11.277Z,46.27
2022-12-16T14:42:59.409Z,46.07
2022-12-16T14:45:48.177Z,48.13
2022-12-16T14:48:49.181Z,51.90
2022-12-16T14:51:43.402Z,47.13
2022-12-16T14:54:36.443Z,53.33
2022-12-16T14:57:22.316Z,50.97
2022-12-16T15:00:19.451Z,53.97
2022-12-16T15:03:08.156Z,52.70
2022-12-16T15:05:57.126Z,52.93
2022-12-16T15:08:43.684Z,52.40
2022-12-16T15:11:33.682Z,51.50
2022-12-16T15:14:19.913Z,60.13
2022-12-16T15:17:07.332Z,50.43
2022-12-16T15:20:03.387Z,50.43
2022-12-16T15:23:02.885Z,94.45
2022-12-16T15:25:49.044Z,70.70
2022-12-16T15:28:55.220Z,72.10
2022-12-16T15:31:40.537Z,72.40
2022-12-16T15:34:47.385Z,68.50
2022-12-16T15:37:41.625Z,67.17
2022-12-16T15:40:50.257Z,67.43
2022-12-16T15:43:48.211Z,65.73
2022-12-16T15:46:41.799Z,65.40
2022-12-16T15:49:38.215Z,67.43
2022-12-16T15:52:48.429Z,70.50
2022-12-16T15:55:46.117Z,62.33
2022-12-16T15:58:38.209Z,66.63
2022-12-16T16:01:25.792Z,62.03
2022-12-16T16:04:13.213Z,61.10
2022-12-16T16:07:04.183Z,59.60
2022-12-16T16:09:51.605Z,53.60
2022-12-16T16:12:38.461Z,65.53
2022-12-16T16:15:27.772Z,61.53
2022-12-16T16:18:15.592Z,59.53
2022-12-16T16:21:02.301Z,61.97
2022-12-16T16:23:48.100Z,73.07
2022-12-16T16:26:35.846Z,72.13
2022-12-16T16:29:27.442Z,70.03
2022-12-16T16:32:14.619Z,65.43
2022-12-16T16:34:59.948Z,64.97
2022-12-16T16:37:45.539Z,57.33
2022-12-16T16:40:39.498Z,58.93
2022-12-16T16:43:36.885Z,54.33
2022-12-16T16:46:32.269Z,59.17
2022-12-16T16:49:19.524Z,58.03
2022-12-16T16:52:05.166Z,66.77
2022-12-16T16:54:50.610Z,64.57
2022-12-16T16:57:35.958Z,63.37
2022-12-16T17:00:22.317Z,64.10
2022-12-16T17:03:07.792Z,69.57
2022-12-16T17:05:54.771Z,65.10
2022-12-16T17:08:40.272Z,73.80
2022-12-16T17:11:35.318Z,66.57
2022-12-16T17:14:20.971Z,60.27
2022-12-16T17:17:06.829Z,58.93
2022-12-16T17:19:52.245Z,55.33
2022-12-16T17:22:38.904Z,60.43
2022-12-16T17:25:25.776Z,61.37
2022-12-16T17:28:11.439Z,62.50
2022-12-16T17:30:56.741Z,62.33
2022-12-16T17:33:42.628Z,58.10
2022-12-16T17:36:32.049Z,60.70
2022-12-16T17:39:19.726Z,52.60
2022-12-16T17:42:05.267Z,53.70
2022-12-16T17:44:51.230Z,60.10
2022-12-16T17:47:37.218Z,56.03
2022-12-16T17:50:24.196Z,56.97
2022-12-16T17:53:12.904Z,58.37
2022-12-16T17:56:00.251Z,66.70
2022-12-16T17:58:49.900Z,75.97
2022-12-16T18:01:35.436Z,70.23
2022-12-16T18:04:21.845Z,67.83
2022-12-16T18:07:07.225Z,70.97
2022-12-16T18:09:52.832Z,77.10
2022-12-16T18:12:40.402Z,81.03
2022-12-16T18:15:26.372Z,84.90
2022-12-16T18:18:12.049Z,68.57
2022-12-16T18:20:57.306Z,69.70
2022-12-16T18:23:42.829Z,71.53
2022-12-16T18:26:31.616Z,79.13
2022-12-16T18:29:18.285Z,68.27
2022-12-16T18:32:03.841Z,70.73
2022-12-16T18:34:49.376Z,84.37
2022-12-16T18:37:34.954Z,76.03
2022-12-16T18:40:20.456Z,78.43
2022-12-16T18:43:05.796Z,74.30
2022-12-16T18:45:52.892Z,68.37
2022-12-16T18:48:49.746Z,68.80
2022-12-16T18:51:35.279Z,59.73
2022-12-16T18:54:20.924Z,60.13
2022-12-16T18:57:06.375Z,60.90
2022-12-16T19:00:06.411Z,56.97
2022-12-16T19:02:53.576Z,53.33
2022-12-16T19:05:39.325Z,53.57
2022-12-16T19:08:24.937Z,61.43
2022-12-16T19:11:14.698Z,57.83
2022-12-16T19:14:00.264Z,57.77
2022-12-16T19:16:45.899Z,63.53
2022-12-16T19:19:32.617Z,64.37
2022-12-16T19:22:18.146Z,74.87
2022-12-16T19:25:03.768Z,68.60
2022-12-16T19:27:49.196Z,70.50
2022-12-16T19:30:34.545Z,60.37
2022-12-16T19:33:19.890Z,57.13
2022-12-16T19:36:06.726Z,66.33
2022-12-16T19:38:52.169Z,86.00
2022-12-16T19:41:38.261Z,77.93
2022-12-16T19:44:24.050Z,73.23
2022-12-16T19:47:09.668Z,69.03
2022-12-16T19:49:56.077Z,65.53
2022-12-16T19:52:42.998Z,62.13
2022-12-16T19:55:28.435Z,56.77
2022-12-16T19:58:13.810Z,55.03
2022-12-16T20:00:59.457Z,63.10
2022-12-16T20:03:45.295Z,62.03
2022-12-16T20:06:30.585Z,63.97
2022-12-16T20:09:17.549Z,62.47
2022-12-16T20:12:03.151Z,64.33
2022-12-16T20:14:48.738Z,66.50
2022-12-16T20:17:34.288Z,70.03
2022-12-16T20:20:20.199Z,63.70
2022-12-16T20:23:05.618Z,60.23
2022-12-16T20:25:56.251Z,59.53
2022-12-16T20:28:42.293Z,58.93
2022-12-16T20:31:27.766Z,65.70
2022-12-16T20:34:14.269Z,90.50
2022-12-16T20:37:00.619Z,88.30
2022-12-16T20:39:52.819Z,72.57
2022-12-16T20:42:44.416Z,70.80
2022-12-16T20:45:30.137Z,69.97
2022-12-16T20:48:15.973Z,74.80
2022-12-16T20:51:01.764Z,63.47
2022-12-16T20:53:47.502Z,62.50
2022-12-16T20:56:33.112Z,73.60
2022-12-16T20:59:20.181Z,78.03
2022-12-16T21:05:10.821Z,73.03
2022-12-16T21:07:56.883Z,71.47
2022-12-16T21:10:42.631Z,76.37
2022-12-16T21:13:30.330Z,74.87
2022-12-16T21:16:18.160Z,67.73
2022-12-16T21:19:03.914Z,75.30
2022-12-16T21:21:49.179Z,64.70
2022-12-16T21:24:34.919Z,68.47
2022-12-16T21:27:20.936Z,55.43
2022-12-16T21:30:06.638Z,61.70
2022-12-16T21:32:53.467Z,59.27
2022-12-16T21:35:39.416Z,70.33
2022-12-16T21:38:27.305Z,63.43
2022-12-16T21:41:13.440Z,74.77
2022-12-16T21:43:59.728Z,69.33
2022-12-16T21:46:45.831Z,68.30
2022-12-16T21:49:32.530Z,69.00
2022-12-16T21:52:17.925Z,57.10
2022-12-16T21:55:03.791Z,69.27
2022-12-16T21:57:49.559Z,67.50
2022-12-16T22:00:35.951Z,75.50
2022-12-16T22:03:21.800Z,76.30
2022-12-16T22:06:09.550Z,68.63
2022-12-16T22:08:56.375Z,67.40
2022-12-16T22:11:41.974Z,77.80
2022-12-16T22:14:27.511Z,69.53
2022-12-16T22:17:13.098Z,68.30
2022-12-16T22:19:58.419Z,61.20
2022-12-16T22:22:45.548Z,55.30
2022-12-16T22:25:30.848Z,65.23
2022-12-16T22:28:16.516Z,64.63
2022-12-16T22:31:02.421Z,58.00
2022-12-16T22:33:50.432Z,60.33
2022-12-16T22:36:37.434Z,62.37
2022-12-16T22:39:24.246Z,69.07
2022-12-16T22:42:09.596Z,61.80
2022-12-16T22:44:56.502Z,66.00
2022-12-16T22:47:42.077Z,57.67
2022-12-16T22:50:27.732Z,59.67
2022-12-16T22:53:13.303Z,69.23
2022-12-16T22:56:02.130Z,62.70
2022-12-16T22:58:47.881Z,62.53
2022-12-16T23:01:33.210Z,66.13
2022-12-16T23:04:19.062Z,83.87
2022-12-16T23:07:04.383Z,84.33
2022-12-16T23:09:49.841Z,72.40
2022-12-16T23:12:36.769Z,69.23
2022-12-16T23:15:23.414Z,61.20
2022-12-16T23:18:09.144Z,59.90
2022-12-16T23:20:56.469Z,49.97
2022-12-16T23:23:42.541Z,50.73
2022-12-16T23:26:28.325Z,49.13
2022-12-16T23:29:14.961Z,57.60
2022-12-16T23:32:00.352Z,52.23
2022-12-16T23:34:46.361Z,56.70
2022-12-16T23:37:32.113Z,60.50
2022-12-16T23:40:16.802Z,61.00
2022-12-16T23:43:02.293Z,57.17
2022-12-16T23:45:49.421Z,59.57
2022-12-16T23:48:35.075Z,52.87
2022-12-16T23:51:20.569Z,42.67
2022-12-16T23:54:06.292Z,43.73
2022-12-16T23:57:03.374Z,50.53
2022-12-16T23:59:48.736Z,49.53
